sensor_id;sensor_type;location;lat;lon;timestamp;P1;durP1;ratioP1;P2;durP2;ratioP2
37383;SDS011;23258;49.718;11.082;2024-01-10T00:01:26;7.73;;;4.60;;
37383;SDS011;23258;49.718;11.082;2024-01-10T00:03:56;4.40;;;4.00;;
37383;SDS011;23258;49.718;11.082;2024-01-10T00:06:28;4.43;;;3.97;;
37383;SDS011;23258;49.718;11.082;2024-01-10T00:08:58;4.17;;;3.57;;
37383;SDS011;23258;49.718;11.082;2024-01-10T00:11:29;4.43;;;4.03;;
37383;SDS011;23258;49.718;11.082;2024-01-10T00:14:01;6.67;;;4.17;;
37383;SDS011;23258;49.718;11.082;2024-01-10T00:16:31;4.87;;;3.90;;
37383;SDS011;23258;49.718;11.082;2024-01-10T00:19:00;5.07;;;4.00;;
37383;SDS011;23258;49.718;11.082;2024-01-10T00:21:33;5.80;;;4.17;;
37383;SDS011;23258;49.718;11.082;2024-01-10T00:24:03;6.77;;;3.87;;
37383;SDS011;23258;49.718;11.082;2024-01-10T00:26:33;5.10;;;3.67;;
37383;SDS011;23258;49.718;11.082;2024-01-10T00:29:03;8.70;;;3.63;;
37383;SDS011;23258;49.718;11.082;2024-01-10T00:31:33;4.83;;;3.83;;
37383;SDS011;23258;49.718;11.082;2024-01-10T00:34:02;7.53;;;4.10;;
37383;SDS011;23258;49.718;11.082;2024-01-10T00:36:35;4.23;;;3.80;;
37383;SDS011;23258;49.718;11.082;2024-01-10T00:39:05;4.60;;;4.07;;
37383;SDS011;23258;49.718;11.082;2024-01-10T00:41:34;5.23;;;4.10;;
37383;SDS011;23258;49.718;11.082;2024-01-10T00:44:04;4.73;;;3.50;;
37383;SDS011;23258;49.718;11.082;2024-01-10T00:46:34;4.97;;;3.73;;
37383;SDS011;23258;49.718;11.082;2024-01-10T00:49:04;7.77;;;4.77;;
37383;SDS011;23258;49.718;11.082;2024-01-10T00:51:36;6.10;;;4.10;;
37383;SDS011;23258;49.718;11.082;2024-01-10T00:54:06;4.07;;;3.67;;
37383;SDS011;23258;49.718;11.082;2024-01-10T00:56:36;5.87;;;3.83;;
37383;SDS011;23258;49.718;11.082;2024-01-10T00:59:05;5.47;;;4.17;;
37383;SDS011;23258;49.718;11.082;2024-01-10T01:01:35;3.97;;;3.43;;
37383;SDS011;23258;49.718;11.082;2024-01-10T01:04:05;5.03;;;4.30;;
37383;SDS011;23258;49.718;11.082;2024-01-10T01:06:37;4.70;;;3.80;;
37383;SDS011;23258;49.718;11.082;2024-01-10T01:09:07;5.53;;;4.03;;
37383;SDS011;23258;49.718;11.082;2024-01-10T01:11:39;5.27;;;3.40;;
37383;SDS011;23258;49.718;11.082;2024-01-10T01:14:08;5.10;;;4.10;;
37383;SDS011;23258;49.718;11.082;2024-01-10T01:16:38;6.40;;;4.17;;
37383;SDS011;23258;49.718;11.082;2024-01-10T01:19:08;5.27;;;3.50;;
37383;SDS011;23258;49.718;11.082;2024-01-10T01:21:41;5.67;;;3.77;;
37383;SDS011;23258;49.718;11.082;2024-01-10T01:24:11;5.57;;;3.60;;
37383;SDS011;23258;49.718;11.082;2024-01-10T01:26:41;7.93;;;3.90;;
37383;SDS011;23258;49.718;11.082;2024-01-10T01:29:11;5.47;;;3.50;;
37383;SDS011;23258;49.718;11.082;2024-01-10T01:31:41;5.90;;;4.00;;
37383;SDS011;23258;49.718;11.082;2024-01-10T01:34:10;6.60;;;4.20;;
37383;SDS011;23258;49.718;11.082;2024-01-10T01:36:43;6.17;;;3.93;;
37383;SDS011;23258;49.718;11.082;2024-01-10T01:39:13;5.03;;;3.73;;
37383;SDS011;23258;49.718;11.082;2024-01-10T01:41:42;6.23;;;3.77;;
37383;SDS011;23258;49.718;11.082;2024-01-10T01:44:12;4.33;;;3.70;;
37383;SDS011;23258;49.718;11.082;2024-01-10T01:46:42;5.37;;;3.63;;
37383;SDS011;23258;49.718;11.082;2024-01-10T01:49:12;5.33;;;3.87;;
37383;SDS011;23258;49.718;11.082;2024-01-10T01:51:44;4.57;;;3.93;;
37383;SDS011;23258;49.718;11.082;2024-01-10T01:54:14;5.53;;;3.93;;
37383;SDS011;23258;49.718;11.082;2024-01-10T01:56:44;5.20;;;4.27;;
37383;SDS011;23258;49.718;11.082;2024-01-10T01:59:14;4.33;;;4.00;;
37383;SDS011;23258;49.718;11.082;2024-01-10T02:01:44;4.07;;;3.33;;
37383;SDS011;23258;49.718;11.082;2024-01-10T02:04:13;4.27;;;3.87;;
37383;SDS011;23258;49.718;11.082;2024-01-10T02:06:46;4.07;;;3.73;;
37383;SDS011;23258;49.718;11.082;2024-01-10T02:09:16;6.37;;;4.43;;
37383;SDS011;23258;49.718;11.082;2024-01-10T02:11:46;7.07;;;3.93;;
37383;SDS011;23258;49.718;11.082;2024-01-10T02:14:16;6.00;;;4.13;;
37383;SDS011;23258;49.718;11.082;2024-01-10T02:16:46;4.33;;;3.93;;
37383;SDS011;23258;49.718;11.082;2024-01-10T02:19:19;7.43;;;4.43;;
37383;SDS011;23258;49.718;11.082;2024-01-10T02:21:51;8.13;;;4.57;;
37383;SDS011;23258;49.718;11.082;2024-01-10T02:24:22;4.97;;;3.70;;
37383;SDS011;23258;49.718;11.082;2024-01-10T02:26:55;5.20;;;4.27;;
37383;SDS011;23258;49.718;11.082;2024-01-10T02:29:25;5.23;;;4.00;;
37383;SDS011;23258;49.718;11.082;2024-01-10T02:31:55;4.17;;;3.77;;
37383;SDS011;23258;49.718;11.082;2024-01-10T02:34:25;5.33;;;3.80;;
37383;SDS011;23258;49.718;11.082;2024-01-10T02:36:54;6.67;;;4.00;;
37383;SDS011;23258;49.718;11.082;2024-01-10T02:39:24;5.87;;;4.30;;
37383;SDS011;23258;49.718;11.082;2024-01-10T02:41:57;5.20;;;4.00;;
37383;SDS011;23258;49.718;11.082;2024-01-10T02:44:26;5.07;;;4.57;;
37383;SDS011;23258;49.718;11.082;2024-01-10T02:46:56;6.77;;;4.47;;
37383;SDS011;23258;49.718;11.082;2024-01-10T02:49:26;4.57;;;4.00;;
37383;SDS011;23258;49.718;11.082;2024-01-10T02:51:55;5.30;;;3.90;;
37383;SDS011;23258;49.718;11.082;2024-01-10T02:54:25;6.63;;;4.40;;
37383;SDS011;23258;49.718;11.082;2024-01-10T02:56:57;4.37;;;3.97;;
37383;SDS011;23258;49.718;11.082;2024-01-10T02:59:27;6.47;;;4.53;;
37383;SDS011;23258;49.718;11.082;2024-01-10T03:01:57;6.87;;;4.43;;
37383;SDS011;23258;49.718;11.082;2024-01-10T03:04:27;6.43;;;4.03;;
37383;SDS011;23258;49.718;11.082;2024-01-10T03:06:56;4.37;;;3.80;;
37383;SDS011;23258;49.718;11.082;2024-01-10T03:09:26;5.77;;;4.30;;
37383;SDS011;23258;49.718;11.082;2024-01-10T03:11:58;5.10;;;4.60;;
37383;SDS011;23258;49.718;11.082;2024-01-10T03:14:28;5.37;;;4.23;;
37383;SDS011;23258;49.718;11.082;2024-01-10T03:16:58;5.40;;;4.03;;
37383;SDS011;23258;49.718;11.082;2024-01-10T03:19:28;4.63;;;4.03;;
37383;SDS011;23258;49.718;11.082;2024-01-10T03:21:57;6.60;;;4.20;;
37383;SDS011;23258;49.718;11.082;2024-01-10T03:24:27;10.70;;;4.87;;
37383;SDS011;23258;49.718;11.082;2024-01-10T03:27:02;5.03;;;4.53;;
37383;SDS011;23258;49.718;11.082;2024-01-10T03:29:32;6.77;;;4.10;;
37383;SDS011;23258;49.718;11.082;2024-01-10T03:32:02;5.83;;;4.70;;
37383;SDS011;23258;49.718;11.082;2024-01-10T03:34:32;5.10;;;4.03;;
37383;SDS011;23258;49.718;11.082;2024-01-10T03:37:02;5.07;;;3.97;;
37383;SDS011;23258;49.718;11.082;2024-01-10T03:39:32;5.50;;;4.90;;
37383;SDS011;23258;49.718;11.082;2024-01-10T03:42:04;5.83;;;4.53;;
37383;SDS011;23258;49.718;11.082;2024-01-10T03:44:34;8.23;;;4.60;;
37383;SDS011;23258;49.718;11.082;2024-01-10T03:47:04;4.93;;;4.53;;
37383;SDS011;23258;49.718;11.082;2024-01-10T03:49:34;5.60;;;4.80;;
37383;SDS011;23258;49.718;11.082;2024-01-10T03:52:04;7.73;;;4.80;;
37383;SDS011;23258;49.718;11.082;2024-01-10T03:54:36;4.87;;;4.30;;
37383;SDS011;23258;49.718;11.082;2024-01-10T03:57:10;8.47;;;4.30;;
37383;SDS011;23258;49.718;11.082;2024-01-10T03:59:40;6.50;;;4.53;;
37383;SDS011;23258;49.718;11.082;2024-01-10T04:02:09;6.13;;;4.80;;
37383;SDS011;23258;49.718;11.082;2024-01-10T04:04:39;6.50;;;5.07;;
37383;SDS011;23258;49.718;11.082;2024-01-10T04:07:09;5.90;;;4.57;;
37383;SDS011;23258;49.718;11.082;2024-01-10T04:09:38;7.83;;;4.67;;
37383;SDS011;23258;49.718;11.082;2024-01-10T04:12:11;5.43;;;4.13;;
37383;SDS011;23258;49.718;11.082;2024-01-10T04:14:41;6.27;;;4.27;;
37383;SDS011;23258;49.718;11.082;2024-01-10T04:17:10;5.83;;;4.10;;
37383;SDS011;23258;49.718;11.082;2024-01-10T04:19:40;7.03;;;4.57;;
37383;SDS011;23258;49.718;11.082;2024-01-10T04:22:10;8.20;;;5.00;;
37383;SDS011;23258;49.718;11.082;2024-01-10T04:24:39;4.70;;;4.30;;
37383;SDS011;23258;49.718;11.082;2024-01-10T04:27:12;6.70;;;4.33;;
37383;SDS011;23258;49.718;11.082;2024-01-10T04:29:41;5.50;;;4.43;;
37383;SDS011;23258;49.718;11.082;2024-01-10T04:32:11;5.27;;;4.23;;
37383;SDS011;23258;49.718;11.082;2024-01-10T04:34:41;10.70;;;5.47;;
37383;SDS011;23258;49.718;11.082;2024-01-10T04:37:10;5.93;;;4.47;;
37383;SDS011;23258;49.718;11.082;2024-01-10T04:39:40;5.57;;;4.73;;
37383;SDS011;23258;49.718;11.082;2024-01-10T04:42:13;5.70;;;4.23;;
37383;SDS011;23258;49.718;11.082;2024-01-10T04:44:43;7.70;;;4.83;;
37383;SDS011;23258;49.718;11.082;2024-01-10T04:47:13;7.77;;;4.90;;
37383;SDS011;23258;49.718;11.082;2024-01-10T04:49:43;4.60;;;4.20;;
37383;SDS011;23258;49.718;11.082;2024-01-10T04:52:12;5.93;;;4.33;;
37383;SDS011;23258;49.718;11.082;2024-01-10T04:54:42;5.87;;;4.50;;
37383;SDS011;23258;49.718;11.082;2024-01-10T04:57:14;5.70;;;4.57;;
37383;SDS011;23258;49.718;11.082;2024-01-10T04:59:44;4.83;;;4.13;;
37383;SDS011;23258;49.718;11.082;2024-01-10T05:02:13;6.07;;;5.07;;
37383;SDS011;23258;49.718;11.082;2024-01-10T05:04:43;6.77;;;4.77;;
37383;SDS011;23258;49.718;11.082;2024-01-10T05:07:13;5.80;;;5.20;;
37383;SDS011;23258;49.718;11.082;2024-01-10T05:09:42;9.50;;;5.20;;
37383;SDS011;23258;49.718;11.082;2024-01-10T05:12:15;7.33;;;5.33;;
37383;SDS011;23258;49.718;11.082;2024-01-10T05:14:45;6.77;;;5.10;;
37383;SDS011;23258;49.718;11.082;2024-01-10T05:17:14;5.30;;;4.53;;
37383;SDS011;23258;49.718;11.082;2024-01-10T05:19:44;7.03;;;5.17;;
37383;SDS011;23258;49.718;11.082;2024-01-10T05:22:14;9.07;;;5.70;;
37383;SDS011;23258;49.718;11.082;2024-01-10T05:24:44;10.97;;;5.87;;
37383;SDS011;23258;49.718;11.082;2024-01-10T05:27:16;8.47;;;6.73;;
37383;SDS011;23258;49.718;11.082;2024-01-10T05:29:46;10.50;;;6.20;;
37383;SDS011;23258;49.718;11.082;2024-01-10T05:32:16;11.43;;;6.20;;
37383;SDS011;23258;49.718;11.082;2024-01-10T05:34:46;8.97;;;5.67;;
37383;SDS011;23258;49.718;11.082;2024-01-10T05:37:16;7.67;;;5.00;;
37383;SDS011;23258;49.718;11.082;2024-01-10T05:39:46;6.67;;;4.93;;
37383;SDS011;23258;49.718;11.082;2024-01-10T05:42:19;8.57;;;5.00;;
37383;SDS011;23258;49.718;11.082;2024-01-10T05:44:48;4.97;;;4.47;;
37383;SDS011;23258;49.718;11.082;2024-01-10T05:47:19;5.80;;;4.47;;
37383;SDS011;23258;49.718;11.082;2024-01-10T05:49:48;7.13;;;4.87;;
37383;SDS011;23258;49.718;11.082;2024-01-10T05:52:19;5.70;;;4.63;;
37383;SDS011;23258;49.718;11.082;2024-01-10T05:54:49;9.33;;;5.03;;
37383;SDS011;23258;49.718;11.082;2024-01-10T05:57:22;6.53;;;5.33;;
37383;SDS011;23258;49.718;11.082;2024-01-10T05:59:52;9.73;;;5.67;;
37383;SDS011;23258;49.718;11.082;2024-01-10T06:02:23;7.17;;;4.63;;
37383;SDS011;23258;49.718;11.082;2024-01-10T06:04:53;7.23;;;5.30;;
37383;SDS011;23258;49.718;11.082;2024-01-10T06:07:23;7.37;;;4.87;;
37383;SDS011;23258;49.718;11.082;2024-01-10T06:09:53;6.43;;;5.10;;
37383;SDS011;23258;49.718;11.082;2024-01-10T06:12:25;6.10;;;5.37;;
37383;SDS011;23258;49.718;11.082;2024-01-10T06:14:55;9.37;;;6.00;;
37383;SDS011;23258;49.718;11.082;2024-01-10T06:17:24;7.43;;;4.90;;
37383;SDS011;23258;49.718;11.082;2024-01-10T06:19:54;6.80;;;5.73;;
37383;SDS011;23258;49.718;11.082;2024-01-10T06:22:26;8.67;;;5.43;;
37383;SDS011;23258;49.718;11.082;2024-01-10T06:24:56;8.47;;;5.27;;
37383;SDS011;23258;49.718;11.082;2024-01-10T06:27:28;7.80;;;5.50;;
37383;SDS011;23258;49.718;11.082;2024-01-10T06:29:58;8.70;;;5.43;;
37383;SDS011;23258;49.718;11.082;2024-01-10T06:32:28;5.27;;;4.77;;
37383;SDS011;23258;49.718;11.082;2024-01-10T06:34:58;7.40;;;5.17;;
37383;SDS011;23258;49.718;11.082;2024-01-10T06:37:28;6.80;;;4.80;;
37383;SDS011;23258;49.718;11.082;2024-01-10T06:40:00;9.10;;;5.30;;
37383;SDS011;23258;49.718;11.082;2024-01-10T06:42:33;9.00;;;5.70;;
37383;SDS011;23258;49.718;11.082;2024-01-10T06:45:05;8.77;;;4.77;;
37383;SDS011;23258;49.718;11.082;2024-01-10T06:47:35;7.43;;;6.00;;
37383;SDS011;23258;49.718;11.082;2024-01-10T06:50:06;8.00;;;5.60;;
37383;SDS011;23258;49.718;11.082;2024-01-10T06:52:36;7.87;;;5.40;;
37383;SDS011;23258;49.718;11.082;2024-01-10T06:55:06;7.67;;;5.30;;
37383;SDS011;23258;49.718;11.082;2024-01-10T06:57:39;6.60;;;4.87;;
37383;SDS011;23258;49.718;11.082;2024-01-10T07:00:09;11.50;;;5.63;;
37383;SDS011;23258;49.718;11.082;2024-01-10T07:02:40;6.90;;;5.87;;
37383;SDS011;23258;49.718;11.082;2024-01-10T07:05:10;6.63;;;5.63;;
37383;SDS011;23258;49.718;11.082;2024-01-10T07:07:40;8.13;;;5.33;;
37383;SDS011;23258;49.718;11.082;2024-01-10T07:10:10;7.13;;;5.23;;
37383;SDS011;23258;49.718;11.082;2024-01-10T07:12:42;8.23;;;5.80;;
37383;SDS011;23258;49.718;11.082;2024-01-10T07:15:12;8.07;;;5.17;;
37383;SDS011;23258;49.718;11.082;2024-01-10T07:17:42;9.17;;;5.63;;
37383;SDS011;23258;49.718;11.082;2024-01-10T07:20:12;11.13;;;5.70;;
37383;SDS011;23258;49.718;11.082;2024-01-10T07:22:42;8.17;;;5.60;;
37383;SDS011;23258;49.718;11.082;2024-01-10T07:25:12;6.40;;;4.93;;
37383;SDS011;23258;49.718;11.082;2024-01-10T07:27:46;8.13;;;5.07;;
37383;SDS011;23258;49.718;11.082;2024-01-10T07:30:16;9.37;;;6.07;;
37383;SDS011;23258;49.718;11.082;2024-01-10T07:32:46;8.83;;;5.73;;
37383;SDS011;23258;49.718;11.082;2024-01-10T07:35:16;7.13;;;5.53;;
37383;SDS011;23258;49.718;11.082;2024-01-10T07:37:45;9.87;;;6.17;;
37383;SDS011;23258;49.718;11.082;2024-01-10T07:40:15;5.57;;;5.07;;
37383;SDS011;23258;49.718;11.082;2024-01-10T07:42:48;7.13;;;5.53;;
37383;SDS011;23258;49.718;11.082;2024-01-10T07:45:17;11.60;;;6.10;;
37383;SDS011;23258;49.718;11.082;2024-01-10T07:47:47;9.43;;;6.27;;
37383;SDS011;23258;49.718;11.082;2024-01-10T07:50:17;7.07;;;5.87;;
37383;SDS011;23258;49.718;11.082;2024-01-10T07:52:47;7.70;;;6.10;;
37383;SDS011;23258;49.718;11.082;2024-01-10T07:55:17;8.27;;;6.90;;
37383;SDS011;23258;49.718;11.082;2024-01-10T07:57:49;7.23;;;5.17;;
37383;SDS011;23258;49.718;11.082;2024-01-10T08:00:20;8.20;;;5.40;;
37383;SDS011;23258;49.718;11.082;2024-01-10T08:02:49;6.73;;;5.87;;
37383;SDS011;23258;49.718;11.082;2024-01-10T08:05:19;9.00;;;6.07;;
37383;SDS011;23258;49.718;11.082;2024-01-10T08:07:48;9.27;;;6.23;;
37383;SDS011;23258;49.718;11.082;2024-01-10T08:10:17;10.60;;;6.73;;
37383;SDS011;23258;49.718;11.082;2024-01-10T08:12:50;8.30;;;5.30;;
37383;SDS011;23258;49.718;11.082;2024-01-10T08:15:19;8.37;;;5.90;;
37383;SDS011;23258;49.718;11.082;2024-01-10T08:17:49;7.13;;;5.70;;
37383;SDS011;23258;49.718;11.082;2024-01-10T08:20:19;7.67;;;5.77;;
37383;SDS011;23258;49.718;11.082;2024-01-10T08:22:49;9.13;;;6.07;;
37383;SDS011;23258;49.718;11.082;2024-01-10T08:25:20;6.73;;;5.80;;
37383;SDS011;23258;49.718;11.082;2024-01-10T08:27:52;6.00;;;5.43;;
37383;SDS011;23258;49.718;11.082;2024-01-10T08:30:24;9.53;;;5.87;;
37383;SDS011;23258;49.718;11.082;2024-01-10T08:32:54;9.80;;;6.37;;
37383;SDS011;23258;49.718;11.082;2024-01-10T08:35:26;9.40;;;6.17;;
37383;SDS011;23258;49.718;11.082;2024-01-10T08:37:56;8.20;;;6.23;;
37383;SDS011;23258;49.718;11.082;2024-01-10T08:40:26;9.87;;;6.37;;
37383;SDS011;23258;49.718;11.082;2024-01-10T08:43:01;7.50;;;5.73;;
37383;SDS011;23258;49.718;11.082;2024-01-10T08:45:31;7.73;;;6.80;;
37383;SDS011;23258;49.718;11.082;2024-01-10T08:48:01;6.97;;;5.90;;
37383;SDS011;23258;49.718;11.082;2024-01-10T08:50:36;8.07;;;5.43;;
37383;SDS011;23258;49.718;11.082;2024-01-10T08:53:05;9.00;;;6.23;;
37383;SDS011;23258;49.718;11.082;2024-01-10T08:55:35;8.60;;;6.03;;
37383;SDS011;23258;49.718;11.082;2024-01-10T08:58:08;9.03;;;5.90;;
37383;SDS011;23258;49.718;11.082;2024-01-10T09:00:38;9.03;;;5.90;;
37383;SDS011;23258;49.718;11.082;2024-01-10T09:03:07;9.03;;;6.83;;
37383;SDS011;23258;49.718;11.082;2024-01-10T09:05:37;9.13;;;6.23;;
37383;SDS011;23258;49.718;11.082;2024-01-10T09:08:12;9.07;;;7.07;;
37383;SDS011;23258;49.718;11.082;2024-01-10T09:10:42;9.53;;;6.53;;
37383;SDS011;23258;49.718;11.082;2024-01-10T09:13:15;12.17;;;6.90;;
37383;SDS011;23258;49.718;11.082;2024-01-10T09:15:45;13.67;;;6.60;;
37383;SDS011;23258;49.718;11.082;2024-01-10T09:18:14;14.73;;;6.80;;
37383;SDS011;23258;49.718;11.082;2024-01-10T09:20:44;12.87;;;7.43;;
37383;SDS011;23258;49.718;11.082;2024-01-10T09:23:15;9.33;;;6.30;;
37383;SDS011;23258;49.718;11.082;2024-01-10T09:25:45;10.83;;;7.17;;
37383;SDS011;23258;49.718;11.082;2024-01-10T09:28:18;7.87;;;5.87;;
37383;SDS011;23258;49.718;11.082;2024-01-10T09:30:47;9.70;;;5.87;;
37383;SDS011;23258;49.718;11.082;2024-01-10T09:33:18;6.77;;;5.70;;
37383;SDS011;23258;49.718;11.082;2024-01-10T09:35:49;9.17;;;5.83;;
37383;SDS011;23258;49.718;11.082;2024-01-10T09:38:19;8.33;;;6.37;;
37383;SDS011;23258;49.718;11.082;2024-01-10T09:40:49;10.27;;;7.33;;
37383;SDS011;23258;49.718;11.082;2024-01-10T09:43:21;8.37;;;6.87;;
37383;SDS011;23258;49.718;11.082;2024-01-10T09:45:51;8.30;;;6.50;;
37383;SDS011;23258;49.718;11.082;2024-01-10T09:48:23;8.63;;;6.77;;
37383;SDS011;23258;49.718;11.082;2024-01-10T09:50:53;7.90;;;6.03;;
37383;SDS011;23258;49.718;11.082;2024-01-10T09:53:23;7.83;;;6.80;;
37383;SDS011;23258;49.718;11.082;2024-01-10T09:55:53;7.67;;;6.20;;
37383;SDS011;23258;49.718;11.082;2024-01-10T09:58:29;12.17;;;6.40;;
37383;SDS011;23258;49.718;11.082;2024-01-10T10:01:06;10.67;;;6.73;;
37383;SDS011;23258;49.718;11.082;2024-01-10T10:03:36;8.17;;;6.73;;
37383;SDS011;23258;49.718;11.082;2024-01-10T10:06:07;9.33;;;7.43;;
37383;SDS011;23258;49.718;11.082;2024-01-10T10:08:41;9.77;;;7.00;;
37383;SDS011;23258;49.718;11.082;2024-01-10T10:11:11;11.73;;;6.80;;
37383;SDS011;23258;49.718;11.082;2024-01-10T10:13:44;12.27;;;7.63;;
37383;SDS011;23258;49.718;11.082;2024-01-10T10:16:14;9.83;;;6.50;;
37383;SDS011;23258;49.718;11.082;2024-01-10T10:18:52;8.07;;;6.73;;
37383;SDS011;23258;49.718;11.082;2024-01-10T10:21:25;8.50;;;6.53;;
37383;SDS011;23258;49.718;11.082;2024-01-10T10:23:58;11.40;;;7.13;;
37383;SDS011;23258;49.718;11.082;2024-01-10T10:26:32;9.83;;;7.20;;
37383;SDS011;23258;49.718;11.082;2024-01-10T10:29:04;10.57;;;6.77;;
37383;SDS011;23258;49.718;11.082;2024-01-10T10:31:34;11.23;;;7.03;;
37383;SDS011;23258;49.718;11.082;2024-01-10T10:34:04;8.03;;;7.10;;
37383;SDS011;23258;49.718;11.082;2024-01-10T10:36:34;13.03;;;6.77;;
37383;SDS011;23258;49.718;11.082;2024-01-10T10:39:04;8.90;;;7.20;;
37383;SDS011;23258;49.718;11.082;2024-01-10T10:41:40;10.60;;;6.87;;
37383;SDS011;23258;49.718;11.082;2024-01-10T10:44:13;9.37;;;7.10;;
37383;SDS011;23258;49.718;11.082;2024-01-10T10:46:44;10.53;;;6.63;;
37383;SDS011;23258;49.718;11.082;2024-01-10T10:49:18;10.23;;;6.73;;
37383;SDS011;23258;49.718;11.082;2024-01-10T10:51:53;9.83;;;6.20;;
37383;SDS011;23258;49.718;11.082;2024-01-10T10:54:23;9.63;;;6.67;;
37383;SDS011;23258;49.718;11.082;2024-01-10T10:56:55;8.50;;;7.33;;
37383;SDS011;23258;49.718;11.082;2024-01-10T10:59:29;10.20;;;6.90;;
37383;SDS011;23258;49.718;11.082;2024-01-10T11:02:02;9.53;;;7.97;;
37383;SDS011;23258;49.718;11.082;2024-01-10T11:04:33;10.90;;;6.80;;
37383;SDS011;23258;49.718;11.082;2024-01-10T11:07:04;8.47;;;7.47;;
37383;SDS011;23258;49.718;11.082;2024-01-10T11:09:35;12.00;;;6.87;;
37383;SDS011;23258;49.718;11.082;2024-01-10T11:12:10;8.57;;;7.20;;
37383;SDS011;23258;49.718;11.082;2024-01-10T11:14:50;9.90;;;7.20;;
37383;SDS011;23258;49.718;11.082;2024-01-10T11:17:28;9.43;;;6.40;;
37383;SDS011;23258;49.718;11.082;2024-01-10T11:20:05;8.23;;;6.00;;
37383;SDS011;23258;49.718;11.082;2024-01-10T11:22:48;11.30;;;7.60;;
37383;SDS011;23258;49.718;11.082;2024-01-10T11:25:21;11.97;;;7.70;;
37383;SDS011;23258;49.718;11.082;2024-01-10T11:27:52;7.50;;;6.77;;
37383;SDS011;23258;49.718;11.082;2024-01-10T11:30:33;10.47;;;7.37;;
37383;SDS011;23258;49.718;11.082;2024-01-10T11:38:43;10.23;;;7.07;;
37383;SDS011;23258;49.718;11.082;2024-01-10T11:41:15;12.67;;;6.93;;
37383;SDS011;23258;49.718;11.082;2024-01-10T11:46:37;9.93;;;6.97;;
37383;SDS011;23258;49.718;11.082;2024-01-10T11:49:07;10.75;;;6.43;;
37383;SDS011;23258;49.718;11.082;2024-01-10T11:51:38;10.50;;;6.63;;
37383;SDS011;23258;49.718;11.082;2024-01-10T11:54:12;9.55;;;6.88;;
37383;SDS011;23258;49.718;11.082;2024-01-10T11:57:02;11.43;;;7.93;;
37383;SDS011;23258;49.718;11.082;2024-01-10T11:59:32;9.23;;;6.80;;
37383;SDS011;23258;49.718;11.082;2024-01-10T12:02:05;10.70;;;6.95;;
37383;SDS011;23258;49.718;11.082;2024-01-10T12:04:35;9.20;;;6.97;;
37383;SDS011;23258;49.718;11.082;2024-01-10T12:07:14;8.45;;;6.43;;
37383;SDS011;23258;49.718;11.082;2024-01-10T12:09:46;10.65;;;6.90;;
37383;SDS011;23258;49.718;11.082;2024-01-10T12:12:16;7.68;;;6.63;;
37383;SDS011;23258;49.718;11.082;2024-01-10T12:14:47;9.82;;;6.47;;
37383;SDS011;23258;49.718;11.082;2024-01-10T12:17:19;7.93;;;6.65;;
37383;SDS011;23258;49.718;11.082;2024-01-10T12:19:49;9.85;;;7.25;;
37383;SDS011;23258;49.718;11.082;2024-01-10T12:22:20;8.95;;;7.00;;
37383;SDS011;23258;49.718;11.082;2024-01-10T12:24:49;9.45;;;7.63;;
37383;SDS011;23258;49.718;11.082;2024-01-10T12:27:19;14.55;;;7.65;;
37383;SDS011;23258;49.718;11.082;2024-01-10T12:29:51;9.13;;;6.72;;
37383;SDS011;23258;49.718;11.082;2024-01-10T12:32:23;8.52;;;7.10;;
37383;SDS011;23258;49.718;11.082;2024-01-10T12:34:54;13.07;;;7.85;;
37383;SDS011;23258;49.718;11.082;2024-01-10T12:37:27;9.07;;;6.38;;
37383;SDS011;23258;49.718;11.082;2024-01-10T12:39:57;9.75;;;6.50;;
37383;SDS011;23258;49.718;11.082;2024-01-10T12:42:28;9.88;;;7.03;;
37383;SDS011;23258;49.718;11.082;2024-01-10T12:44:58;10.02;;;6.75;;
37383;SDS011;23258;49.718;11.082;2024-01-10T12:47:30;10.18;;;7.22;;
37383;SDS011;23258;49.718;11.082;2024-01-10T12:50:00;8.70;;;6.57;;
37383;SDS011;23258;49.718;11.082;2024-01-10T12:52:30;9.27;;;6.78;;
37383;SDS011;23258;49.718;11.082;2024-01-10T12:55:06;10.38;;;7.40;;
37383;SDS011;23258;49.718;11.082;2024-01-10T12:57:36;7.25;;;6.53;;
37383;SDS011;23258;49.718;11.082;2024-01-10T13:00:07;8.88;;;6.68;;
37383;SDS011;23258;49.718;11.082;2024-01-10T13:02:40;8.13;;;6.72;;
37383;SDS011;23258;49.718;11.082;2024-01-10T13:05:10;8.48;;;6.35;;
37383;SDS011;23258;49.718;11.082;2024-01-10T13:07:40;12.93;;;7.53;;
37383;SDS011;23258;49.718;11.082;2024-01-10T13:10:10;7.25;;;6.03;;
37383;SDS011;23258;49.718;11.082;2024-01-10T13:12:40;8.55;;;7.05;;
37383;SDS011;23258;49.718;11.082;2024-01-10T13:15:10;8.00;;;6.60;;
37383;SDS011;23258;49.718;11.082;2024-01-10T13:17:42;9.02;;;6.45;;
37383;SDS011;23258;49.718;11.082;2024-01-10T13:20:12;7.57;;;6.43;;
37383;SDS011;23258;49.718;11.082;2024-01-10T13:22:42;9.70;;;7.05;;
37383;SDS011;23258;49.718;11.082;2024-01-10T13:25:12;8.68;;;6.38;;
37383;SDS011;23258;49.718;11.082;2024-01-10T13:27:42;9.77;;;6.60;;
37383;SDS011;23258;49.718;11.082;2024-01-10T13:30:12;9.35;;;6.45;;
37383;SDS011;23258;49.718;11.082;2024-01-10T13:32:45;8.10;;;6.05;;
37383;SDS011;23258;49.718;11.082;2024-01-10T13:35:15;8.20;;;6.63;;
37383;SDS011;23258;49.718;11.082;2024-01-10T13:37:45;8.95;;;6.13;;
37383;SDS011;23258;49.718;11.082;2024-01-10T13:40:15;8.05;;;6.28;;
37383;SDS011;23258;49.718;11.082;2024-01-10T13:42:50;9.63;;;7.15;;
37383;SDS011;23258;49.718;11.082;2024-01-10T13:45:20;7.85;;;6.07;;
37383;SDS011;23258;49.718;11.082;2024-01-10T13:47:53;6.82;;;6.13;;
37383;SDS011;23258;49.718;11.082;2024-01-10T13:50:23;8.48;;;5.95;;
37383;SDS011;23258;49.718;11.082;2024-01-10T13:52:54;9.48;;;6.50;;
37383;SDS011;23258;49.718;11.082;2024-01-10T13:55:23;9.05;;;6.65;;
37383;SDS011;23258;49.718;11.082;2024-01-10T13:57:53;7.43;;;6.63;;
37383;SDS011;23258;49.718;11.082;2024-01-10T14:00:23;6.70;;;5.97;;
37383;SDS011;23258;49.718;11.082;2024-01-10T14:02:56;11.70;;;7.47;;
37383;SDS011;23258;49.718;11.082;2024-01-10T14:05:28;9.43;;;6.53;;
37383;SDS011;23258;49.718;11.082;2024-01-10T14:07:58;8.77;;;6.55;;
37383;SDS011;23258;49.718;11.082;2024-01-10T14:10:27;12.02;;;6.85;;
37383;SDS011;23258;49.718;11.082;2024-01-10T14:12:57;9.13;;;6.38;;
37383;SDS011;23258;49.718;11.082;2024-01-10T14:15:27;8.75;;;6.57;;
37383;SDS011;23258;49.718;11.082;2024-01-10T14:18:00;7.80;;;6.30;;
37383;SDS011;23258;49.718;11.082;2024-01-10T14:20:30;10.02;;;7.43;;
37383;SDS011;23258;49.718;11.082;2024-01-10T14:23:00;11.40;;;6.55;;
37383;SDS011;23258;49.718;11.082;2024-01-10T14:25:30;9.20;;;6.70;;
37383;SDS011;23258;49.718;11.082;2024-01-10T14:27:59;7.80;;;6.45;;
37383;SDS011;23258;49.718;11.082;2024-01-10T14:30:29;8.25;;;7.13;;
37383;SDS011;23258;49.718;11.082;2024-01-10T14:33:02;10.30;;;7.43;;
37383;SDS011;23258;49.718;11.082;2024-01-10T14:35:32;7.05;;;5.75;;
37383;SDS011;23258;49.718;11.082;2024-01-10T14:38:03;10.00;;;6.80;;
37383;SDS011;23258;49.718;11.082;2024-01-10T14:40:32;8.93;;;6.28;;
37383;SDS011;23258;49.718;11.082;2024-01-10T14:43:03;8.25;;;6.35;;
37383;SDS011;23258;49.718;11.082;2024-01-10T14:45:32;11.63;;;7.45;;
37383;SDS011;23258;49.718;11.082;2024-01-10T14:48:05;7.88;;;6.72;;
37383;SDS011;23258;49.718;11.082;2024-01-10T14:50:35;6.10;;;5.32;;
37383;SDS011;23258;49.718;11.082;2024-01-10T14:53:05;8.73;;;6.32;;
37383;SDS011;23258;49.718;11.082;2024-01-10T14:55:35;6.70;;;5.97;;
37383;SDS011;23258;49.718;11.082;2024-01-10T14:58:05;9.45;;;6.65;;
37383;SDS011;23258;49.718;11.082;2024-01-10T15:00:36;9.48;;;6.80;;
37383;SDS011;23258;49.718;11.082;2024-01-10T15:03:10;9.45;;;6.65;;